sensor_id;sensor_type;location;lat;lon;timestamp;temperature;humidity
16867;DHT22;8550;52.596;13.320;2023-04-29T00:02:30;13.00;99.90
16867;DHT22;8550;52.596;13.320;2023-04-29T00:07:32;13.00;99.90
16867;DHT22;8550;52.596;13.320;2023-04-29T00:12:35;13.00;99.90
16867;DHT22;8550;52.596;13.320;2023-04-29T00:17:37;12.90;99.90
16867;DHT22;8550;52.596;13.320;2023-04-29T00:22:39;12.80;99.90
16867;DHT22;8550;52.596;13.320;2023-04-29T00:27:42;12.80;99.90
16867;DHT22;8550;52.596;13.320;2023-04-29T00:32:44;12.80;99.90
16867;DHT22;8550;52.596;13.320;2023-04-29T00:37:47;12.80;99.90
16867;DHT22;8550;52.596;13.320;2023-04-29T00:42:50;12.80;99.90
16867;DHT22;8550;52.596;13.320;2023-04-29T00:47:52;12.60;99.90
16867;DHT22;8550;52.596;13.320;2023-04-29T00:52:54;12.60;99.90
16867;DHT22;8550;52.596;13.320;2023-04-29T00:57:58;12.70;99.90
16867;DHT22;8550;52.596;13.320;2023-04-29T01:03:00;12.70;99.90
16867;DHT22;8550;52.596;13.320;2023-04-29T01:08:20;12.70;99.90
16867;DHT22;8550;52.596;13.320;2023-04-29T01:13:29;12.60;99.90
16867;DHT22;8550;52.596;13.320;2023-04-29T01:18:32;12.60;99.90
16867;DHT22;8550;52.596;13.320;2023-04-29T01:23:37;12.50;99.90
16867;DHT22;8550;52.596;13.320;2023-04-29T01:28:44;12.30;99.90
16867;DHT22;8550;52.596;13.320;2023-04-29T01:33:53;12.30;99.90
16867;DHT22;8550;52.596;13.320;2023-04-29T01:39:06;12.30;99.90
16867;DHT22;8550;52.596;13.320;2023-04-29T01:44:14;12.20;99.90
16867;DHT22;8550;52.596;13.320;2023-04-29T01:49:19;12.10;99.90
16867;DHT22;8550;52.596;13.320;2023-04-29T01:54:23;12.10;99.90
16867;DHT22;8550;52.596;13.320;2023-04-29T01:59:25;12.00;99.90
16867;DHT22;8550;52.596;13.320;2023-04-29T02:04:29;11.90;99.90
16867;DHT22;8550;52.596;13.320;2023-04-29T02:09:37;11.70;99.90
16867;DHT22;8550;52.596;13.320;2023-04-29T02:14:56;11.70;99.90
16867;DHT22;8550;52.596;13.320;2023-04-29T02:20:16;11.80;99.90
16867;DHT22;8550;52.596;13.320;2023-04-29T02:25:24;11.70;99.90
16867;DHT22;8550;52.596;13.320;2023-04-29T02:30:26;11.80;99.90
16867;DHT22;8550;52.596;13.320;2023-04-29T02:35:28;11.70;99.90
16867;DHT22;8550;52.596;13.320;2023-04-29T02:40:31;11.80;99.90
16867;DHT22;8550;52.596;13.320;2023-04-29T02:45:34;11.80;99.90
16867;DHT22;8550;52.596;13.320;2023-04-29T02:50:36;11.80;99.90
16867;DHT22;8550;52.596;13.320;2023-04-29T02:55:39;11.70;99.90
16867;DHT22;8550;52.596;13.320;2023-04-29T03:00:42;11.80;99.90
16867;DHT22;8550;52.596;13.320;2023-04-29T03:05:44;11.80;99.90
16867;DHT22;8550;52.596;13.320;2023-04-29T03:10:48;11.90;99.90
16867;DHT22;8550;52.596;13.320;2023-04-29T03:15:50;11.80;99.90
16867;DHT22;8550;52.596;13.320;2023-04-29T03:20:53;11.90;99.90
16867;DHT22;8550;52.596;13.320;2023-04-29T03:25:56;11.80;99.90
16867;DHT22;8550;52.596;13.320;2023-04-29T03:30:58;11.80;99.90
16867;DHT22;8550;52.596;13.320;2023-04-29T03:36:00;11.90;99.90
16867;DHT22;8550;52.596;13.320;2023-04-29T03:41:04;11.80;99.90
16867;DHT22;8550;52.596;13.320;2023-04-29T03:46:07;11.90;99.90
16867;DHT22;8550;52.596;13.320;2023-04-29T03:51:09;11.90;99.90
16867;DHT22;8550;52.596;13.320;2023-04-29T03:56:14;11.90;99.90
16867;DHT22;8550;52.596;13.320;2023-04-29T04:01:16;11.90;99.90
16867;DHT22;8550;52.596;13.320;2023-04-29T04:06:18;12.00;99.90
16867;DHT22;8550;52.596;13.320;2023-04-29T04:11:22;12.00;99.90
16867;DHT22;8550;52.596;13.320;2023-04-29T04:16:24;12.00;99.90
16867;DHT22;8550;52.596;13.320;2023-04-29T04:21:26;12.00;99.90
16867;DHT22;8550;52.596;13.320;2023-04-29T04:26:31;12.10;99.90
16867;DHT22;8550;52.596;13.320;2023-04-29T04:31:33;12.10;99.90
16867;DHT22;8550;52.596;13.320;2023-04-29T04:36:36;12.20;99.90
16867;DHT22;8550;52.596;13.320;2023-04-29T04:41:39;12.20;99.90
16867;DHT22;8550;52.596;13.320;2023-04-29T04:46:47;12.20;99.90
16867;DHT22;8550;52.596;13.320;2023-04-29T04:51:50;12.20;99.90
16867;DHT22;8550;52.596;13.320;2023-04-29T04:56:53;12.20;99.90
16867;DHT22;8550;52.596;13.320;2023-04-29T05:01:55;12.30;99.90
16867;DHT22;8550;52.596;13.320;2023-04-29T05:06:57;12.20;99.90
16867;DHT22;8550;52.596;13.320;2023-04-29T05:12:00;12.20;99.90
16867;DHT22;8550;52.596;13.320;2023-04-29T05:17:02;12.30;99.90
16867;DHT22;8550;52.596;13.320;2023-04-29T05:22:04;12.20;99.90
16867;DHT22;8550;52.596;13.320;2023-04-29T05:27:08;12.30;99.90
16867;DHT22;8550;52.596;13.320;2023-04-29T05:32:10;12.20;99.90
16867;DHT22;8550;52.596;13.320;2023-04-29T05:37:13;12.20;99.90
16867;DHT22;8550;52.596;13.320;2023-04-29T05:42:16;12.20;99.90
16867;DHT22;8550;52.596;13.320;2023-04-29T05:47:18;12.20;99.90
16867;DHT22;8550;52.596;13.320;2023-04-29T05:52:20;12.20;99.90
16867;DHT22;8550;52.596;13.320;2023-04-29T05:57:23;12.20;99.90
16867;DHT22;8550;52.596;13.320;2023-04-29T06:02:25;12.30;99.90
16867;DHT22;8550;52.596;13.320;2023-04-29T06:07:28;12.30;99.90
16867;DHT22;8550;52.596;13.320;2023-04-29T06:12:31;12.30;99.90
16867;DHT22;8550;52.596;13.320;2023-04-29T06:17:33;12.30;99.90
16867;DHT22;8550;52.596;13.320;2023-04-29T06:22:35;12.40;99.90
16867;DHT22;8550;52.596;13.320;2023-04-29T06:27:38;12.30;99.90
16867;DHT22;8550;52.596;13.320;2023-04-29T06:32:40;12.30;99.90
16867;DHT22;8550;52.596;13.320;2023-04-29T06:37:42;12.40;99.90
16867;DHT22;8550;52.596;13.320;2023-04-29T06:42:46;12.40;99.90
16867;DHT22;8550;52.596;13.320;2023-04-29T06:47:48;12.30;99.90
16867;DHT22;8550;52.596;13.320;2023-04-29T06:52:50;12.20;99.90
16867;DHT22;8550;52.596;13.320;2023-04-29T06:57:53;12.10;99.90
16867;DHT22;8550;52.596;13.320;2023-04-29T07:02:55;12.10;99.90
16867;DHT22;8550;52.596;13.320;2023-04-29T07:07:58;12.10;99.90
16867;DHT22;8550;52.596;13.320;2023-04-29T07:13:01;12.10;99.90
16867;DHT22;8550;52.596;13.320;2023-04-29T07:18:03;12.00;99.90
16867;DHT22;8550;52.596;13.320;2023-04-29T07:23:06;12.00;99.90
16867;DHT22;8550;52.596;13.320;2023-04-29T07:28:09;12.00;99.90
16867;DHT22;8550;52.596;13.320;2023-04-29T07:33:11;11.90;99.90
16867;DHT22;8550;52.596;13.320;2023-04-29T07:38:14;11.90;99.90
16867;DHT22;8550;52.596;13.320;2023-04-29T07:43:17;11.90;99.90
16867;DHT22;8550;52.596;13.320;2023-04-29T07:48:19;11.90;99.90
16867;DHT22;8550;52.596;13.320;2023-04-29T07:53:21;11.90;99.90
16867;DHT22;8550;52.596;13.320;2023-04-29T07:58:27;11.90;99.90
16867;DHT22;8550;52.596;13.320;2023-04-29T08:03:29;11.90;99.90
16867;DHT22;8550;52.596;13.320;2023-04-29T08:08:31;11.70;99.90
16867;DHT22;8550;52.596;13.320;2023-04-29T08:13:34;11.80;99.90
16867;DHT22;8550;52.596;13.320;2023-04-29T08:18:36;11.70;99.90
16867;DHT22;8550;52.596;13.320;2023-04-29T08:23:38;11.80;99.90
16867;DHT22;8550;52.596;13.320;2023-04-29T08:28:42;11.70;99.90
16867;DHT22;8550;52.596;13.320;2023-04-29T08:33:44;11.70;99.90
16867;DHT22;8550;52.596;13.320;2023-04-29T08:38:46;11.70;99.90
16867;DHT22;8550;52.596;13.320;2023-04-29T08:43:49;11.70;99.90
16867;DHT22;8550;52.596;13.320;2023-04-29T08:48:52;11.60;99.90
16867;DHT22;8550;52.596;13.320;2023-04-29T08:53:56;11.60;99.90
16867;DHT22;8550;52.596;13.320;2023-04-29T08:59:01;11.60;99.90
16867;DHT22;8550;52.596;13.320;2023-04-29T09:04:08;11.50;99.90
16867;DHT22;8550;52.596;13.320;2023-04-29T09:09:12;11.50;99.90
16867;DHT22;8550;52.596;13.320;2023-04-29T09:14:16;11.50;99.90
16867;DHT22;8550;52.596;13.320;2023-04-29T09:19:29;11.40;99.90
16867;DHT22;8550;52.596;13.320;2023-04-29T09:24:31;11.30;99.90
16867;DHT22;8550;52.596;13.320;2023-04-29T09:29:35;11.30;99.90
16867;DHT22;8550;52.596;13.320;2023-04-29T09:34:38;11.40;99.90
16867;DHT22;8550;52.596;13.320;2023-04-29T09:39:40;11.30;99.90
16867;DHT22;8550;52.596;13.320;2023-04-29T09:44:44;11.40;99.90
16867;DHT22;8550;52.596;13.320;2023-04-29T09:49:46;11.40;99.90
16867;DHT22;8550;52.596;13.320;2023-04-29T09:54:49;11.50;99.90
16867;DHT22;8550;52.596;13.320;2023-04-29T09:59:52;11.70;99.90
16867;DHT22;8550;52.596;13.320;2023-04-29T10:04:55;12.00;99.90
16867;DHT22;8550;52.596;13.320;2023-04-29T10:09:58;12.00;99.90
16867;DHT22;8550;52.596;13.320;2023-04-29T10:15:03;12.00;99.90
16867;DHT22;8550;52.596;13.320;2023-04-29T10:20:06;11.90;99.90
16867;DHT22;8550;52.596;13.320;2023-04-29T10:25:09;11.90;99.90
16867;DHT22;8550;52.596;13.320;2023-04-29T10:30:14;12.00;99.90
16867;DHT22;8550;52.596;13.320;2023-04-29T10:35:18;12.20;99.90
16867;DHT22;8550;52.596;13.320;2023-04-29T10:40:28;12.40;99.90
16867;DHT22;8550;52.596;13.320;2023-04-29T10:45:33;12.80;99.90
16867;DHT22;8550;52.596;13.320;2023-04-29T10:50:40;13.20;99.90
16867;DHT22;8550;52.596;13.320;2023-04-29T10:56:12;13.40;99.90
16867;DHT22;8550;52.596;13.320;2023-04-29T11:01:16;13.10;99.90
16867;DHT22;8550;52.596;13.320;2023-04-29T11:06:18;12.90;99.90
16867;DHT22;8550;52.596;13.320;2023-04-29T11:11:20;13.00;99.90
16867;DHT22;8550;52.596;13.320;2023-04-29T11:16:26;13.80;99.90
16867;DHT22;8550;52.596;13.320;2023-04-29T11:21:28;14.50;99.90
16867;DHT22;8550;52.596;13.320;2023-04-29T11:26:33;14.80;99.90
16867;DHT22;8550;52.596;13.320;2023-04-29T11:31:37;14.50;99.90
16867;DHT22;8550;52.596;13.320;2023-04-29T11:36:39;14.30;99.90
16867;DHT22;8550;52.596;13.320;2023-04-29T11:41:42;14.20;99.90
16867;DHT22;8550;52.596;13.320;2023-04-29T11:46:45;14.60;99.90
16867;DHT22;8550;52.596;13.320;2023-04-29T11:51:47;14.30;99.90
16867;DHT22;8550;52.596;13.320;2023-04-29T11:56:49;14.30;99.90
16867;DHT22;8550;52.596;13.320;2023-04-29T12:01:55;14.00;99.90
16867;DHT22;8550;52.596;13.320;2023-04-29T12:06:58;14.00;99.90
16867;DHT22;8550;52.596;13.320;2023-04-29T12:12:00;13.80;99.90
16867;DHT22;8550;52.596;13.320;2023-04-29T12:17:04;13.60;99.90
16867;DHT22;8550;52.596;13.320;2023-04-29T12:22:06;13.90;99.90
16867;DHT22;8550;52.596;13.320;2023-04-29T12:27:09;14.30;99.90
16867;DHT22;8550;52.596;13.320;2023-04-29T12:32:16;14.50;99.90
16867;DHT22;8550;52.596;13.320;2023-04-29T12:37:18;14.40;99.90
16867;DHT22;8550;52.596;13.320;2023-04-29T12:42:20;14.50;99.90
16867;DHT22;8550;52.596;13.320;2023-04-29T12:47:23;14.80;99.90
16867;DHT22;8550;52.596;13.320;2023-04-29T12:52:33;15.10;99.90
16867;DHT22;8550;52.596;13.320;2023-04-29T12:57:35;15.40;99.90
16867;DHT22;8550;52.596;13.320;2023-04-29T13:02:38;15.60;99.90
16867;DHT22;8550;52.596;13.320;2023-04-29T13:07:41;15.20;99.90
16867;DHT22;8550;52.596;13.320;2023-04-29T13:12:43;15.40;99.90
16867;DHT22;8550;52.596;13.320;2023-04-29T13:17:46;15.60;99.90
16867;DHT22;8550;52.596;13.320;2023-04-29T13:22:48;15.20;99.90
16867;DHT22;8550;52.596;13.320;2023-04-29T13:27:50;15.40;99.90
16867;DHT22;8550;52.596;13.320;2023-04-29T13:32:53;15.90;99.90
16867;DHT22;8550;52.596;13.320;2023-04-29T13:37:55;16.30;99.90
16867;DHT22;8550;52.596;13.320;2023-04-29T13:42:57;16.50;99.90
16867;DHT22;8550;52.596;13.320;2023-04-29T13:48:00;16.30;99.90
16867;DHT22;8550;52.596;13.320;2023-04-29T13:53:02;15.90;99.90
16867;DHT22;8550;52.596;13.320;2023-04-29T13:58:04;15.40;99.90
16867;DHT22;8550;52.596;13.320;2023-04-29T14:03:09;14.80;99.90
16867;DHT22;8550;52.596;13.320;2023-04-29T14:08:11;15.10;99.90
16867;DHT22;8550;52.596;13.320;2023-04-29T14:13:13;15.10;99.90
16867;DHT22;8550;52.596;13.320;2023-04-29T14:18:16;15.60;99.90
16867;DHT22;8550;52.596;13.320;2023-04-29T14:23:18;16.90;99.90
16867;DHT22;8550;52.596;13.320;2023-04-29T14:28:21;17.30;99.90
16867;DHT22;8550;52.596;13.320;2023-04-29T14:33:24;17.30;99.90
16867;DHT22;8550;52.596;13.320;2023-04-29T14:38:26;18.80;99.50
16867;DHT22;8550;52.596;13.320;2023-04-29T14:43:28;19.60;95.90
16867;DHT22;8550;52.596;13.320;2023-04-29T14:48:34;20.70;90.90
16867;DHT22;8550;52.596;13.320;2023-04-29T14:53:36;19.30;91.60
16867;DHT22;8550;52.596;13.320;2023-04-29T14:58:38;18.90;94.00
16867;DHT22;8550;52.596;13.320;2023-04-29T15:03:42;18.20;95.10
16867;DHT22;8550;52.596;13.320;2023-04-29T15:08:44;17.20;97.20
16867;DHT22;8550;52.596;13.320;2023-04-29T15:13:47;17.00;98.10
16867;DHT22;8550;52.596;13.320;2023-04-29T15:18:50;16.60;99.90
16867;DHT22;8550;52.596;13.320;2023-04-29T15:23:52;16.50;99.90
16867;DHT22;8550;52.596;13.320;2023-04-29T15:28:55;16.30;99.90
16867;DHT22;8550;52.596;13.320;2023-04-29T15:33:58;16.50;99.90
16867;DHT22;8550;52.596;13.320;2023-04-29T15:39:00;16.20;99.90
16867;DHT22;8550;52.596;13.320;2023-04-29T15:44:02;16.10;99.90
16867;DHT22;8550;52.596;13.320;2023-04-29T15:49:05;15.90;99.90
16867;DHT22;8550;52.596;13.320;2023-04-29T15:54:07;15.80;99.90
16867;DHT22;8550;52.596;13.320;2023-04-29T15:59:09;15.70;99.90
16867;DHT22;8550;52.596;13.320;2023-04-29T16:04:12;15.70;99.90
16867;DHT22;8550;52.596;13.320;2023-04-29T16:09:14;15.90;99.90
16867;DHT22;8550;52.596;13.320;2023-04-29T16:14:16;16.40;99.90
16867;DHT22;8550;52.596;13.320;2023-04-29T16:19:19;16.40;99.90
16867;DHT22;8550;52.596;13.320;2023-04-29T16:24:21;15.90;99.90
16867;DHT22;8550;52.596;13.320;2023-04-29T16:29:23;16.00;99.90
16867;DHT22;8550;52.596;13.320;2023-04-29T16:34:27;16.40;99.60
16867;DHT22;8550;52.596;13.320;2023-04-29T16:39:28;17.20;98.80
16867;DHT22;8550;52.596;13.320;2023-04-29T16:44:30;17.70;94.40
16867;DHT22;8550;52.596;13.320;2023-04-29T16:49:34;17.70;92.70
16867;DHT22;8550;52.596;13.320;2023-04-29T16:54:36;17.40;88.80
16867;DHT22;8550;52.596;13.320;2023-04-29T16:59:38;16.30;89.00
16867;DHT22;8550;52.596;13.320;2023-04-29T17:04:41;15.60;91.20
16867;DHT22;8550;52.596;13.320;2023-04-29T17:09:43;15.30;92.20
16867;DHT22;8550;52.596;13.320;2023-04-29T17:14:46;15.10;92.60
16867;DHT22;8550;52.596;13.320;2023-04-29T17:19:50;14.80;93.40
16867;DHT22;8550;52.596;13.320;2023-04-29T17:24:52;14.80;93.60
16867;DHT22;8550;52.596;13.320;2023-04-29T17:29:54;15.00;93.30
16867;DHT22;8550;52.596;13.320;2023-04-29T17:34:58;15.20;93.20
16867;DHT22;8550;52.596;13.320;2023-04-29T17:40:00;15.30;92.70
16867;DHT22;8550;52.596;13.320;2023-04-29T17:45:02;15.40;93.00
16867;DHT22;8550;52.596;13.320;2023-04-29T17:50:06;15.20;93.10
16867;DHT22;8550;52.596;13.320;2023-04-29T17:55:09;15.00;94.60
16867;DHT22;8550;52.596;13.320;2023-04-29T18:00:11;14.90;93.20
16867;DHT22;8550;52.596;13.320;2023-04-29T18:05:15;14.70;93.40
16867;DHT22;8550;52.596;13.320;2023-04-29T18:10:17;14.70;93.80
16867;DHT22;8550;52.596;13.320;2023-04-29T18:15:19;14.40;94.50
16867;DHT22;8550;52.596;13.320;2023-04-29T18:20:24;14.10;94.90
16867;DHT22;8550;52.596;13.320;2023-04-29T18:25:26;13.80;94.60
16867;DHT22;8550;52.596;13.320;2023-04-29T18:30:28;13.60;95.40
16867;DHT22;8550;52.596;13.320;2023-04-29T18:35:31;13.40;95.30
16867;DHT22;8550;52.596;13.320;2023-04-29T18:40:33;13.20;96.30
16867;DHT22;8550;52.596;13.320;2023-04-29T18:45:36;13.10;96.30
16867;DHT22;8550;52.596;13.320;2023-04-29T18:50:40;13.00;96.70
16867;DHT22;8550;52.596;13.320;2023-04-29T18:55:42;12.80;96.90
16867;DHT22;8550;52.596;13.320;2023-04-29T19:00:44;12.70;97.40
16867;DHT22;8550;52.596;13.320;2023-04-29T19:05:49;12.40;99.10
16867;DHT22;8550;52.596;13.320;2023-04-29T19:10:51;12.20;99.70
16867;DHT22;8550;52.596;13.320;2023-04-29T19:15:53;12.00;99.90
16867;DHT22;8550;52.596;13.320;2023-04-29T19:20:57;11.80;99.90
16867;DHT22;8550;52.596;13.320;2023-04-29T19:25:59;11.60;99.90
16867;DHT22;8550;52.596;13.320;2023-04-29T19:31:01;11.40;99.90
16867;DHT22;8550;52.596;13.320;2023-04-29T19:36:04;11.10;99.90
16867;DHT22;8550;52.596;13.320;2023-04-29T19:41:06;11.10;99.90
16867;DHT22;8550;52.596;13.320;2023-04-29T19:46:10;11.20;99.90
16867;DHT22;8550;52.596;13.320;2023-04-29T19:51:14;11.10;99.90
16867;DHT22;8550;52.596;13.320;2023-04-29T19:56:16;11.00;99.90
16867;DHT22;8550;52.596;13.320;2023-04-29T20:01:19;11.00;99.90
16867;DHT22;8550;52.596;13.320;2023-04-29T20:06:22;10.90;99.90
16867;DHT22;8550;52.596;13.320;2023-04-29T20:11:24;10.80;99.90
16867;DHT22;8550;52.596;13.320;2023-04-29T20:16:26;10.60;99.90
16867;DHT22;8550;52.596;13.320;2023-04-29T20:21:30;10.50;99.90
16867;DHT22;8550;52.596;13.320;2023-04-29T20:26:33;10.20;99.90
16867;DHT22;8550;52.596;13.320;2023-04-29T20:31:35;10.10;99.90
16867;DHT22;8550;52.596;13.320;2023-04-29T20:36:38;10.00;99.90
16867;DHT22;8550;52.596;13.320;2023-04-29T20:41:40;9.90;99.90
16867;DHT22;8550;52.596;13.320;2023-04-29T20:46:42;9.90;99.90
16867;DHT22;8550;52.596;13.320;2023-04-29T20:51:47;9.80;99.90
16867;DHT22;8550;52.596;13.320;2023-04-29T20:56:49;9.80;99.90
16867;DHT22;8550;52.596;13.320;2023-04-29T21:01:51;9.50;99.90
16867;DHT22;8550;52.596;13.320;2023-04-29T21:06:54;9.50;99.90
16867;DHT22;8550;52.596;13.320;2023-04-29T21:11:56;9.40;99.90
16867;DHT22;8550;52.596;13.320;2023-04-29T21:17:01;9.50;99.90
16867;DHT22;8550;52.596;13.320;2023-04-29T21:22:04;9.40;99.90
16867;DHT22;8550;52.596;13.320;2023-04-29T21:27:06;9.30;99.90
16867;DHT22;8550;52.596;13.320;2023-04-29T21:32:08;9.40;99.90
16867;DHT22;8550;52.596;13.320;2023-04-29T21:37:11;9.40;99.90
16867;DHT22;8550;52.596;13.320;2023-04-29T21:42:15;9.40;99.90
16867;DHT22;8550;52.596;13.320;2023-04-29T21:47:20;9.50;99.90
16867;DHT22;8550;52.596;13.320;2023-04-29T21:52:24;9.60;99.90
16867;DHT22;8550;52.596;13.320;2023-04-29T21:57:26;9.50;99.90
16867;DHT22;8550;52.596;13.320;2023-04-29T22:02:28;9.40;99.90
16867;DHT22;8550;52.596;13.320;2023-04-29T22:07:38;9.30;99.90
16867;DHT22;8550;52.596;13.320;2023-04-29T22:12:40;9.20;99.90
16867;DHT22;8550;52.596;13.320;2023-04-29T22:17:43;9.20;99.90
16867;DHT22;8550;52.596;13.320;2023-04-29T22:22:46;9.10;99.90
16867;DHT22;8550;52.596;13.320;2023-04-29T22:27:48;8.90;99.90
16867;DHT22;8550;52.596;13.320;2023-04-29T22:32:50;9.10;99.90
16867;DHT22;8550;52.596;13.320;2023-04-29T22:37:54;9.00;99.90
16867;DHT22;8550;52.596;13.320;2023-04-29T22:42:56;9.00;99.90
16867;DHT22;8550;52.596;13.320;2023-04-29T22:47:58;9.00;99.90
16867;DHT22;8550;52.596;13.320;2023-04-29T22:53:01;9.10;99.90
16867;DHT22;8550;52.596;13.320;2023-04-29T22:58:03;9.10;99.90
16867;DHT22;8550;52.596;13.320;2023-04-29T23:03:05;9.10;99.90
16867;DHT22;8550;52.596;13.320;2023-04-29T23:08:08;9.00;99.90
16867;DHT22;8550;52.596;13.320;2023-04-29T23:13:10;8.90;99.90
16867;DHT22;8550;52.596;13.320;2023-04-29T23:18:12;8.90;99.90
16867;DHT22;8550;52.596;13.320;2023-04-29T23:23:16;8.80;99.90
16867;DHT22;8550;52.596;13.320;2023-04-29T23:28:18;8.60;99.90
16867;DHT22;8550;52.596;13.320;2023-04-29T23:33:20;8.50;99.90
16867;DHT22;8550;52.596;13.320;2023-04-29T23:38:23;8.40;99.90
16867;DHT22;8550;52.596;13.320;2023-04-29T23:43:25;8.30;99.90
16867;DHT22;8550;52.596;13.320;2023-04-29T23:48:27;8.20;99.90
16867;DHT22;8550;52.596;13.320;2023-04-29T23:53:31;8.00;99.90
16867;DHT22;8550;52.596;13.320;2023-04-29T23:58:33;8.00;99.90
